sensor_id;sensor_type;location;lat;lon;timestamp;P1;durP1;ratioP1;P2;durP2;ratioP2
5805;SDS011;2929;50.810;8.342;2024-02-26T00:00:39;3.70;;;2.10;;
5805;SDS011;2929;50.810;8.342;2024-02-26T00:03:05;3.60;;;2.40;;
5805;SDS011;2929;50.810;8.342;2024-02-26T00:05:34;8.67;;;3.20;;
5805;SDS011;2929;50.810;8.342;2024-02-26T00:08:03;6.50;;;2.70;;
5805;SDS011;2929;50.810;8.342;2024-02-26T00:10:31;8.13;;;2.87;;
5805;SDS011;2929;50.810;8.342;2024-02-26T00:13:00;3.10;;;1.80;;
5805;SDS011;2929;50.810;8.342;2024-02-26T00:15:27;2.73;;;1.37;;
5805;SDS011;2929;50.810;8.342;2024-02-26T00:17:54;2.90;;;1.47;;
5805;SDS011;2929;50.810;8.342;2024-02-26T00:20:21;2.90;;;1.47;;
5805;SDS011;2929;50.810;8.342;2024-02-26T00:22:49;1.70;;;1.40;;
5805;SDS011;2929;50.810;8.342;2024-02-26T00:25:16;3.60;;;1.57;;
5805;SDS011;2929;50.810;8.342;2024-02-26T00:27:43;4.23;;;1.20;;
5805;SDS011;2929;50.810;8.342;2024-02-26T00:30:10;2.60;;;1.60;;
5805;SDS011;2929;50.810;8.342;2024-02-26T00:32:37;1.40;;;1.20;;
5805;SDS011;2929;50.810;8.342;2024-02-26T00:35:05;1.60;;;1.20;;
5805;SDS011;2929;50.810;8.342;2024-02-26T00:37:34;2.90;;;1.20;;
5805;SDS011;2929;50.810;8.342;2024-02-26T00:40:03;1.40;;;1.30;;
5805;SDS011;2929;50.810;8.342;2024-02-26T00:42:30;1.43;;;1.20;;
5805;SDS011;2929;50.810;8.342;2024-02-26T00:44:57;1.23;;;1.13;;
5805;SDS011;2929;50.810;8.342;2024-02-26T00:47:24;1.13;;;1.03;;
5805;SDS011;2929;50.810;8.342;2024-02-26T00:49:50;2.10;;;1.23;;
5805;SDS011;2929;50.810;8.342;2024-02-26T00:52:17;1.43;;;1.33;;
5805;SDS011;2929;50.810;8.342;2024-02-26T00:54:44;4.00;;;1.40;;
5805;SDS011;2929;50.810;8.342;2024-02-26T00:57:12;2.00;;;1.20;;
5805;SDS011;2929;50.810;8.342;2024-02-26T00:59:39;3.07;;;1.90;;
5805;SDS011;2929;50.810;8.342;2024-02-26T01:02:06;1.90;;;1.57;;
5805;SDS011;2929;50.810;8.342;2024-02-26T01:04:33;13.93;;;1.73;;
5805;SDS011;2929;50.810;8.342;2024-02-26T01:07:00;1.60;;;1.30;;
5805;SDS011;2929;50.810;8.342;2024-02-26T01:09:28;1.80;;;1.57;;
5805;SDS011;2929;50.810;8.342;2024-02-26T01:11:55;1.43;;;0.90;;
5805;SDS011;2929;50.810;8.342;2024-02-26T01:14:23;2.03;;;1.10;;
5805;SDS011;2929;50.810;8.342;2024-02-26T01:16:50;1.80;;;1.23;;
5805;SDS011;2929;50.810;8.342;2024-02-26T01:19:17;3.63;;;1.77;;
5805;SDS011;2929;50.810;8.342;2024-02-26T01:21:43;1.53;;;1.20;;
5805;SDS011;2929;50.810;8.342;2024-02-26T01:24:10;1.30;;;1.20;;
5805;SDS011;2929;50.810;8.342;2024-02-26T01:26:37;1.63;;;1.30;;
5805;SDS011;2929;50.810;8.342;2024-02-26T01:29:04;1.30;;;1.20;;
5805;SDS011;2929;50.810;8.342;2024-02-26T01:31:32;1.17;;;1.07;;
5805;SDS011;2929;50.810;8.342;2024-02-26T01:34:00;1.47;;;1.13;;
5805;SDS011;2929;50.810;8.342;2024-02-26T01:36:28;1.30;;;1.20;;
5805;SDS011;2929;50.810;8.342;2024-02-26T01:38:54;2.67;;;1.50;;
5805;SDS011;2929;50.810;8.342;2024-02-26T01:41:21;1.30;;;1.20;;
5805;SDS011;2929;50.810;8.342;2024-02-26T01:43:48;1.77;;;1.23;;
5805;SDS011;2929;50.810;8.342;2024-02-26T01:46:15;2.10;;;1.30;;
5805;SDS011;2929;50.810;8.342;2024-02-26T01:48:44;3.77;;;1.40;;
5805;SDS011;2929;50.810;8.342;2024-02-26T01:51:15;1.53;;;1.43;;
5805;SDS011;2929;50.810;8.342;2024-02-26T01:53:43;3.83;;;1.70;;
5805;SDS011;2929;50.810;8.342;2024-02-26T01:56:10;2.53;;;1.63;;
5805;SDS011;2929;50.810;8.342;2024-02-26T01:58:38;2.20;;;1.50;;
5805;SDS011;2929;50.810;8.342;2024-02-26T02:01:05;2.97;;;1.20;;
5805;SDS011;2929;50.810;8.342;2024-02-26T02:03:33;2.53;;;1.90;;
5805;SDS011;2929;50.810;8.342;2024-02-26T02:06:01;2.90;;;1.20;;
5805;SDS011;2929;50.810;8.342;2024-02-26T02:08:29;2.80;;;1.50;;
5805;SDS011;2929;50.810;8.342;2024-02-26T02:10:56;1.10;;;1.00;;
5805;SDS011;2929;50.810;8.342;2024-02-26T02:13:25;1.60;;;1.30;;
5805;SDS011;2929;50.810;8.342;2024-02-26T02:15:51;1.20;;;1.10;;
5805;SDS011;2929;50.810;8.342;2024-02-26T02:18:19;1.37;;;1.00;;
5805;SDS011;2929;50.810;8.342;2024-02-26T02:20:47;2.17;;;1.10;;
5805;SDS011;2929;50.810;8.342;2024-02-26T02:23:14;2.50;;;1.20;;
5805;SDS011;2929;50.810;8.342;2024-02-26T02:25:41;2.23;;;1.40;;
5805;SDS011;2929;50.810;8.342;2024-02-26T02:28:08;2.20;;;1.80;;
5805;SDS011;2929;50.810;8.342;2024-02-26T02:30:35;4.70;;;1.53;;
5805;SDS011;2929;50.810;8.342;2024-02-26T02:33:04;1.70;;;1.17;;
5805;SDS011;2929;50.810;8.342;2024-02-26T02:35:31;2.07;;;1.50;;
5805;SDS011;2929;50.810;8.342;2024-02-26T02:37:59;7.10;;;1.53;;
5805;SDS011;2929;50.810;8.342;2024-02-26T02:40:26;6.60;;;1.30;;
5805;SDS011;2929;50.810;8.342;2024-02-26T02:42:53;1.67;;;1.03;;
5805;SDS011;2929;50.810;8.342;2024-02-26T02:45:21;1.30;;;1.20;;
5805;SDS011;2929;50.810;8.342;2024-02-26T02:47:48;1.10;;;1.00;;
5805;SDS011;2929;50.810;8.342;2024-02-26T02:50:14;0.97;;;0.97;;
5805;SDS011;2929;50.810;8.342;2024-02-26T02:52:43;1.40;;;1.30;;
5805;SDS011;2929;50.810;8.342;2024-02-26T02:55:11;2.10;;;1.17;;
5805;SDS011;2929;50.810;8.342;2024-02-26T02:57:38;1.50;;;1.30;;
5805;SDS011;2929;50.810;8.342;2024-02-26T03:00:08;2.07;;;1.40;;
5805;SDS011;2929;50.810;8.342;2024-02-26T03:02:35;1.90;;;1.40;;
5805;SDS011;2929;50.810;8.342;2024-02-26T03:05:02;1.47;;;1.37;;
5805;SDS011;2929;50.810;8.342;2024-02-26T03:07:30;1.10;;;1.00;;
5805;SDS011;2929;50.810;8.342;2024-02-26T03:09:57;1.30;;;1.17;;
5805;SDS011;2929;50.810;8.342;2024-02-26T03:12:25;1.13;;;1.13;;
5805;SDS011;2929;50.810;8.342;2024-02-26T03:14:53;1.10;;;1.00;;
5805;SDS011;2929;50.810;8.342;2024-02-26T03:17:20;1.63;;;1.40;;
5805;SDS011;2929;50.810;8.342;2024-02-26T03:19:49;3.03;;;1.13;;
5805;SDS011;2929;50.810;8.342;2024-02-26T03:22:18;1.73;;;1.50;;
5805;SDS011;2929;50.810;8.342;2024-02-26T03:24:47;4.37;;;1.43;;
5805;SDS011;2929;50.810;8.342;2024-02-26T03:27:14;1.63;;;1.30;;
5805;SDS011;2929;50.810;8.342;2024-02-26T03:29:42;1.50;;;1.20;;
5805;SDS011;2929;50.810;8.342;2024-02-26T03:32:09;1.70;;;1.30;;
5805;SDS011;2929;50.810;8.342;2024-02-26T03:34:36;1.40;;;1.30;;
5805;SDS011;2929;50.810;8.342;2024-02-26T03:37:06;3.43;;;1.23;;
5805;SDS011;2929;50.810;8.342;2024-02-26T03:39:35;2.87;;;1.00;;
5805;SDS011;2929;50.810;8.342;2024-02-26T03:42:02;1.57;;;1.10;;
5805;SDS011;2929;50.810;8.342;2024-02-26T03:44:29;1.20;;;1.10;;
5805;SDS011;2929;50.810;8.342;2024-02-26T03:46:58;1.57;;;1.10;;
5805;SDS011;2929;50.810;8.342;2024-02-26T03:49:24;1.50;;;1.40;;
5805;SDS011;2929;50.810;8.342;2024-02-26T03:51:51;3.20;;;1.63;;
5805;SDS011;2929;50.810;8.342;2024-02-26T03:54:18;2.10;;;1.23;;
5805;SDS011;2929;50.810;8.342;2024-02-26T03:56:45;1.50;;;1.40;;
5805;SDS011;2929;50.810;8.342;2024-02-26T03:59:12;3.27;;;1.27;;
5805;SDS011;2929;50.810;8.342;2024-02-26T04:01:44;2.47;;;1.60;;
5805;SDS011;2929;50.810;8.342;2024-02-26T04:04:12;1.10;;;1.00;;
5805;SDS011;2929;50.810;8.342;2024-02-26T04:06:39;1.03;;;1.03;;
5805;SDS011;2929;50.810;8.342;2024-02-26T04:09:10;1.50;;;1.10;;
5805;SDS011;2929;50.810;8.342;2024-02-26T04:11:37;1.83;;;1.50;;
5805;SDS011;2929;50.810;8.342;2024-02-26T04:14:03;1.73;;;1.40;;
5805;SDS011;2929;50.810;8.342;2024-02-26T04:16:31;1.67;;;1.33;;
5805;SDS011;2929;50.810;8.342;2024-02-26T04:18:58;1.33;;;1.23;;
5805;SDS011;2929;50.810;8.342;2024-02-26T04:21:26;4.40;;;1.60;;
5805;SDS011;2929;50.810;8.342;2024-02-26T04:23:53;2.43;;;1.20;;
5805;SDS011;2929;50.810;8.342;2024-02-26T04:26:21;1.20;;;1.00;;
5805;SDS011;2929;50.810;8.342;2024-02-26T04:28:48;1.30;;;1.20;;
5805;SDS011;2929;50.810;8.342;2024-02-26T04:31:15;2.00;;;1.53;;
5805;SDS011;2929;50.810;8.342;2024-02-26T04:33:41;2.03;;;1.50;;
5805;SDS011;2929;50.810;8.342;2024-02-26T04:36:12;2.30;;;1.37;;
5805;SDS011;2929;50.810;8.342;2024-02-26T04:38:41;3.13;;;1.40;;
5805;SDS011;2929;50.810;8.342;2024-02-26T04:41:08;4.70;;;1.20;;
5805;SDS011;2929;50.810;8.342;2024-02-26T04:43:35;1.53;;;1.43;;
5805;SDS011;2929;50.810;8.342;2024-02-26T04:46:06;2.07;;;1.43;;
5805;SDS011;2929;50.810;8.342;2024-02-26T04:48:33;3.30;;;1.30;;
5805;SDS011;2929;50.810;8.342;2024-02-26T04:51:00;1.40;;;1.30;;
5805;SDS011;2929;50.810;8.342;2024-02-26T04:53:27;1.57;;;1.20;;
5805;SDS011;2929;50.810;8.342;2024-02-26T04:55:55;3.63;;;1.40;;
5805;SDS011;2929;50.810;8.342;2024-02-26T04:58:22;1.50;;;1.10;;
5805;SDS011;2929;50.810;8.342;2024-02-26T05:00:49;1.20;;;1.10;;
5805;SDS011;2929;50.810;8.342;2024-02-26T05:03:16;1.00;;;1.00;;
5805;SDS011;2929;50.810;8.342;2024-02-26T05:05:45;2.73;;;1.20;;
5805;SDS011;2929;50.810;8.342;2024-02-26T05:08:12;1.83;;;1.13;;
5805;SDS011;2929;50.810;8.342;2024-02-26T05:10:39;2.50;;;1.70;;
5805;SDS011;2929;50.810;8.342;2024-02-26T05:13:07;1.80;;;1.70;;
5805;SDS011;2929;50.810;8.342;2024-02-26T05:15:34;2.77;;;1.40;;
5805;SDS011;2929;50.810;8.342;2024-02-26T05:18:01;1.30;;;1.20;;
5805;SDS011;2929;50.810;8.342;2024-02-26T05:20:29;2.40;;;1.43;;
5805;SDS011;2929;50.810;8.342;2024-02-26T05:22:57;1.50;;;1.40;;
5805;SDS011;2929;50.810;8.342;2024-02-26T05:25:24;1.73;;;1.30;;
5805;SDS011;2929;50.810;8.342;2024-02-26T05:27:51;1.83;;;1.40;;
5805;SDS011;2929;50.810;8.342;2024-02-26T05:30:21;1.80;;;1.70;;
5805;SDS011;2929;50.810;8.342;2024-02-26T05:32:47;1.90;;;1.50;;
5805;SDS011;2929;50.810;8.342;2024-02-26T05:35:14;1.77;;;1.40;;
5805;SDS011;2929;50.810;8.342;2024-02-26T05:37:41;1.57;;;1.40;;
5805;SDS011;2929;50.810;8.342;2024-02-26T05:40:08;2.00;;;1.80;;
5805;SDS011;2929;50.810;8.342;2024-02-26T05:42:37;1.20;;;1.10;;
5805;SDS011;2929;50.810;8.342;2024-02-26T05:45:05;1.27;;;1.20;;
5805;SDS011;2929;50.810;8.342;2024-02-26T05:47:34;2.17;;;1.50;;
5805;SDS011;2929;50.810;8.342;2024-02-26T05:50:07;2.17;;;1.40;;
5805;SDS011;2929;50.810;8.342;2024-02-26T05:52:36;2.30;;;1.70;;
5805;SDS011;2929;50.810;8.342;2024-02-26T05:55:03;1.40;;;1.30;;
5805;SDS011;2929;50.810;8.342;2024-02-26T05:57:31;1.50;;;1.40;;
5805;SDS011;2929;50.810;8.342;2024-02-26T05:59:58;1.23;;;1.13;;
5805;SDS011;2929;50.810;8.342;2024-02-26T06:02:38;1.80;;;1.33;;
5805;SDS011;2929;50.810;8.342;2024-02-26T06:05:05;2.40;;;1.27;;
5805;SDS011;2929;50.810;8.342;2024-02-26T06:07:34;1.70;;;1.47;;
5805;SDS011;2929;50.810;8.342;2024-02-26T06:10:01;3.87;;;1.70;;
5805;SDS011;2929;50.810;8.342;2024-02-26T06:12:30;4.00;;;2.40;;
5805;SDS011;2929;50.810;8.342;2024-02-26T06:14:58;4.80;;;2.53;;
5805;SDS011;2929;50.810;8.342;2024-02-26T06:17:26;3.77;;;2.97;;
5805;SDS011;2929;50.810;8.342;2024-02-26T06:19:55;9.80;;;5.03;;
5805;SDS011;2929;50.810;8.342;2024-02-26T06:22:22;5.17;;;3.57;;
5805;SDS011;2929;50.810;8.342;2024-02-26T06:24:48;5.33;;;2.30;;
5805;SDS011;2929;50.810;8.342;2024-02-26T06:27:17;3.30;;;2.27;;
5805;SDS011;2929;50.810;8.342;2024-02-26T06:29:47;4.60;;;2.23;;
5805;SDS011;2929;50.810;8.342;2024-02-26T06:32:16;2.53;;;2.00;;
5805;SDS011;2929;50.810;8.342;2024-02-26T06:34:43;1.60;;;1.50;;
5805;SDS011;2929;50.810;8.342;2024-02-26T06:37:12;2.07;;;1.87;;
5805;SDS011;2929;50.810;8.342;2024-02-26T06:39:39;4.80;;;3.47;;
5805;SDS011;2929;50.810;8.342;2024-02-26T06:42:07;6.53;;;3.13;;
5805;SDS011;2929;50.810;8.342;2024-02-26T06:44:34;2.90;;;2.30;;
5805;SDS011;2929;50.810;8.342;2024-02-26T06:47:01;3.57;;;2.10;;
5805;SDS011;2929;50.810;8.342;2024-02-26T06:49:29;2.40;;;1.93;;
5805;SDS011;2929;50.810;8.342;2024-02-26T06:51:57;1.80;;;1.70;;
5805;SDS011;2929;50.810;8.342;2024-02-26T06:54:25;3.00;;;2.53;;
5805;SDS011;2929;50.810;8.342;2024-02-26T06:56:52;3.03;;;1.87;;
5805;SDS011;2929;50.810;8.342;2024-02-26T06:59:19;5.50;;;2.77;;
5805;SDS011;2929;50.810;8.342;2024-02-26T07:01:46;27.10;;;11.23;;
5805;SDS011;2929;50.810;8.342;2024-02-26T07:04:14;25.17;;;11.23;;
5805;SDS011;2929;50.810;8.342;2024-02-26T07:06:41;14.83;;;7.30;;
5805;SDS011;2929;50.810;8.342;2024-02-26T07:09:36;9.10;;;3.50;;
5805;SDS011;2929;50.810;8.342;2024-02-26T07:12:06;9.50;;;3.93;;
5805;SDS011;2929;50.810;8.342;2024-02-26T07:14:33;8.03;;;3.70;;
5805;SDS011;2929;50.810;8.342;2024-02-26T07:17:00;4.70;;;2.63;;
5805;SDS011;2929;50.810;8.342;2024-02-26T07:19:27;4.20;;;2.90;;
5805;SDS011;2929;50.810;8.342;2024-02-26T07:21:54;3.90;;;1.93;;
5805;SDS011;2929;50.810;8.342;2024-02-26T07:24:21;3.40;;;2.47;;
5805;SDS011;2929;50.810;8.342;2024-02-26T07:26:49;2.43;;;1.90;;
5805;SDS011;2929;50.810;8.342;2024-02-26T07:29:16;6.03;;;3.43;;
5805;SDS011;2929;50.810;8.342;2024-02-26T07:31:43;2.50;;;2.23;;
5805;SDS011;2929;50.810;8.342;2024-02-26T07:34:11;3.60;;;1.90;;
5805;SDS011;2929;50.810;8.342;2024-02-26T07:36:38;3.73;;;2.67;;
5805;SDS011;2929;50.810;8.342;2024-02-26T07:39:07;5.83;;;2.53;;
5805;SDS011;2929;50.810;8.342;2024-02-26T07:41:35;2.17;;;1.77;;
5805;SDS011;2929;50.810;8.342;2024-02-26T07:44:06;2.93;;;2.40;;
5805;SDS011;2929;50.810;8.342;2024-02-26T07:46:33;2.53;;;2.10;;
5805;SDS011;2929;50.810;8.342;2024-02-26T07:48:59;3.23;;;2.43;;
5805;SDS011;2929;50.810;8.342;2024-02-26T07:51:26;9.47;;;2.13;;
5805;SDS011;2929;50.810;8.342;2024-02-26T07:53:53;4.50;;;2.00;;
5805;SDS011;2929;50.810;8.342;2024-02-26T07:56:20;2.07;;;1.87;;
5805;SDS011;2929;50.810;8.342;2024-02-26T07:58:46;4.87;;;1.67;;
5805;SDS011;2929;50.810;8.342;2024-02-26T08:01:15;1.77;;;1.47;;
5805;SDS011;2929;50.810;8.342;2024-02-26T08:03:42;4.77;;;2.13;;
5805;SDS011;2929;50.810;8.342;2024-02-26T08:06:11;3.90;;;1.70;;
5805;SDS011;2929;50.810;8.342;2024-02-26T08:08:38;3.23;;;2.23;;
5805;SDS011;2929;50.810;8.342;2024-02-26T08:11:05;3.27;;;1.70;;
5805;SDS011;2929;50.810;8.342;2024-02-26T08:13:32;3.30;;;2.13;;
5805;SDS011;2929;50.810;8.342;2024-02-26T08:15:59;4.23;;;2.20;;
5805;SDS011;2929;50.810;8.342;2024-02-26T08:18:27;4.60;;;3.07;;
5805;SDS011;2929;50.810;8.342;2024-02-26T08:20:54;3.03;;;2.10;;
5805;SDS011;2929;50.810;8.342;2024-02-26T08:23:21;4.20;;;2.30;;
5805;SDS011;2929;50.810;8.342;2024-02-26T08:25:48;2.60;;;2.13;;
5805;SDS011;2929;50.810;8.342;2024-02-26T08:28:15;3.60;;;2.10;;
5805;SDS011;2929;50.810;8.342;2024-02-26T08:30:43;3.03;;;2.00;;
5805;SDS011;2929;50.810;8.342;2024-02-26T08:33:10;1.97;;;1.70;;
5805;SDS011;2929;50.810;8.342;2024-02-26T08:35:39;5.83;;;2.73;;
5805;SDS011;2929;50.810;8.342;2024-02-26T08:38:08;4.00;;;2.50;;
5805;SDS011;2929;50.810;8.342;2024-02-26T08:40:35;2.20;;;1.90;;
5805;SDS011;2929;50.810;8.342;2024-02-26T08:43:02;3.40;;;2.17;;
5805;SDS011;2929;50.810;8.342;2024-02-26T08:45:30;3.90;;;2.20;;
5805;SDS011;2929;50.810;8.342;2024-02-26T08:47:56;2.93;;;2.43;;
5805;SDS011;2929;50.810;8.342;2024-02-26T08:50:24;6.67;;;2.70;;
5805;SDS011;2929;50.810;8.342;2024-02-26T08:52:53;2.43;;;2.00;;
5805;SDS011;2929;50.810;8.342;2024-02-26T08:55:20;4.43;;;2.23;;
5805;SDS011;2929;50.810;8.342;2024-02-26T08:57:47;3.40;;;2.17;;
5805;SDS011;2929;50.810;8.342;2024-02-26T09:00:14;2.87;;;2.50;;
5805;SDS011;2929;50.810;8.342;2024-02-26T09:02:43;3.63;;;2.40;;
5805;SDS011;2929;50.810;8.342;2024-02-26T09:05:10;4.00;;;2.63;;
5805;SDS011;2929;50.810;8.342;2024-02-26T09:07:37;4.47;;;3.37;;
5805;SDS011;2929;50.810;8.342;2024-02-26T09:10:05;3.40;;;3.00;;
5805;SDS011;2929;50.810;8.342;2024-02-26T09:12:35;6.43;;;3.20;;
5805;SDS011;2929;50.810;8.342;2024-02-26T09:15:03;6.40;;;2.80;;
5805;SDS011;2929;50.810;8.342;2024-02-26T09:17:30;17.03;;;3.70;;
5805;SDS011;2929;50.810;8.342;2024-02-26T09:19:57;5.17;;;2.90;;
5805;SDS011;2929;50.810;8.342;2024-02-26T09:22:24;7.30;;;2.73;;
5805;SDS011;2929;50.810;8.342;2024-02-26T09:24:51;3.53;;;2.50;;
5805;SDS011;2929;50.810;8.342;2024-02-26T09:27:20;3.73;;;2.50;;
5805;SDS011;2929;50.810;8.342;2024-02-26T09:29:48;2.60;;;2.30;;
5805;SDS011;2929;50.810;8.342;2024-02-26T09:32:15;3.70;;;2.50;;
5805;SDS011;2929;50.810;8.342;2024-02-26T09:34:43;4.00;;;2.47;;
5805;SDS011;2929;50.810;8.342;2024-02-26T09:37:09;2.43;;;2.23;;
5805;SDS011;2929;50.810;8.342;2024-02-26T09:39:38;3.30;;;2.67;;
5805;SDS011;2929;50.810;8.342;2024-02-26T09:42:04;2.33;;;2.13;;
5805;SDS011;2929;50.810;8.342;2024-02-26T09:44:36;2.93;;;2.20;;
5805;SDS011;2929;50.810;8.342;2024-02-26T09:47:07;3.37;;;1.90;;
5805;SDS011;2929;50.810;8.342;2024-02-26T09:49:38;3.77;;;2.40;;
5805;SDS011;2929;50.810;8.342;2024-02-26T09:52:06;4.23;;;2.70;;
5805;SDS011;2929;50.810;8.342;2024-02-26T09:54:34;4.27;;;2.93;;
5805;SDS011;2929;50.810;8.342;2024-02-26T09:57:02;2.80;;;2.00;;
5805;SDS011;2929;50.810;8.342;2024-02-26T09:59:30;5.13;;;3.07;;
5805;SDS011;2929;50.810;8.342;2024-02-26T10:02:06;2.60;;;2.40;;
5805;SDS011;2929;50.810;8.342;2024-02-26T10:04:37;3.70;;;2.33;;
5805;SDS011;2929;50.810;8.342;2024-02-26T10:07:05;3.87;;;2.80;;
5805;SDS011;2929;50.810;8.342;2024-02-26T10:09:36;4.00;;;2.37;;
5805;SDS011;2929;50.810;8.342;2024-02-26T10:12:03;7.80;;;4.23;;
5805;SDS011;2929;50.810;8.342;2024-02-26T10:14:32;5.07;;;3.10;;
5805;SDS011;2929;50.810;8.342;2024-02-26T10:17:00;4.43;;;3.10;;
5805;SDS011;2929;50.810;8.342;2024-02-26T10:19:29;5.10;;;2.90;;
5805;SDS011;2929;50.810;8.342;2024-02-26T10:21:57;5.83;;;3.13;;
5805;SDS011;2929;50.810;8.342;2024-02-26T10:24:24;3.87;;;2.97;;
5805;SDS011;2929;50.810;8.342;2024-02-26T10:26:51;4.10;;;3.10;;
5805;SDS011;2929;50.810;8.342;2024-02-26T10:29:19;4.43;;;3.17;;
5805;SDS011;2929;50.810;8.342;2024-02-26T10:31:47;3.70;;;2.80;;
5805;SDS011;2929;50.810;8.342;2024-02-26T10:34:14;6.77;;;2.97;;
5805;SDS011;2929;50.810;8.342;2024-02-26T10:36:44;3.20;;;2.90;;
5805;SDS011;2929;50.810;8.342;2024-02-26T10:39:12;4.93;;;3.27;;
5805;SDS011;2929;50.810;8.342;2024-02-26T10:41:40;5.40;;;2.83;;
5805;SDS011;2929;50.810;8.342;2024-02-26T10:44:09;7.20;;;3.40;;
5805;SDS011;2929;50.810;8.342;2024-02-26T10:46:37;5.47;;;2.83;;
5805;SDS011;2929;50.810;8.342;2024-02-26T10:49:04;2.60;;;2.40;;
5805;SDS011;2929;50.810;8.342;2024-02-26T10:51:33;6.83;;;2.50;;
5805;SDS011;2929;50.810;8.342;2024-02-26T10:54:04;4.63;;;2.83;;
5805;SDS011;2929;50.810;8.342;2024-02-26T10:56:35;4.57;;;2.80;;
5805;SDS011;2929;50.810;8.342;2024-02-26T10:59:05;3.30;;;2.60;;
5805;SDS011;2929;50.810;8.342;2024-02-26T11:01:36;5.50;;;3.83;;
5805;SDS011;2929;50.810;8.342;2024-02-26T11:04:04;2.87;;;2.67;;
5805;SDS011;2929;50.810;8.342;2024-02-26T11:06:32;4.43;;;2.40;;
5805;SDS011;2929;50.810;8.342;2024-02-26T11:09:00;5.10;;;3.33;;
5805;SDS011;2929;50.810;8.342;2024-02-26T11:11:30;7.80;;;3.60;;
5805;SDS011;2929;50.810;8.342;2024-02-26T11:13:59;4.73;;;3.20;;
5805;SDS011;2929;50.810;8.342;2024-02-26T11:16:29;7.87;;;4.10;;
5805;SDS011;2929;50.810;8.342;2024-02-26T11:18:57;8.90;;;4.80;;
5805;SDS011;2929;50.810;8.342;2024-02-26T11:21:25;7.60;;;4.50;;
5805;SDS011;2929;50.810;8.342;2024-02-26T11:24:04;10.97;;;6.00;;
5805;SDS011;2929;50.810;8.342;2024-02-26T11:26:34;10.70;;;5.97;;
5805;SDS011;2929;50.810;8.342;2024-02-26T11:29:07;5.20;;;3.13;;
5805;SDS011;2929;50.810;8.342;2024-02-26T11:31:37;3.43;;;2.90;;
5805;SDS011;2929;50.810;8.342;2024-02-26T11:34:04;7.10;;;4.20;;
5805;SDS011;2929;50.810;8.342;2024-02-26T11:36:33;4.50;;;3.40;;
5805;SDS011;2929;50.810;8.342;2024-02-26T11:39:03;5.53;;;3.33;;
5805;SDS011;2929;50.810;8.342;2024-02-26T11:41:30;4.97;;;4.17;;
5805;SDS011;2929;50.810;8.342;2024-02-26T11:44:00;7.80;;;3.73;;
5805;SDS011;2929;50.810;8.342;2024-02-26T11:46:29;4.77;;;3.20;;
5805;SDS011;2929;50.810;8.342;2024-02-26T11:49:01;4.17;;;3.10;;
5805;SDS011;2929;50.810;8.342;2024-02-26T11:51:32;3.63;;;3.10;;
5805;SDS011;2929;50.810;8.342;2024-02-26T11:54:00;6.17;;;4.20;;
5805;SDS011;2929;50.810;8.342;2024-02-26T11:56:27;5.23;;;3.80;;
5805;SDS011;2929;50.810;8.342;2024-02-26T11:59:00;4.97;;;3.70;;
5805;SDS011;2929;50.810;8.342;2024-02-26T12:01:40;8.40;;;4.10;;
5805;SDS011;2929;50.810;8.342;2024-02-26T12:04:11;4.80;;;3.50;;
5805;SDS011;2929;50.810;8.342;2024-02-26T12:06:41;5.17;;;3.60;;
5805;SDS011;2929;50.810;8.342;2024-02-26T12:09:09;4.43;;;3.30;;
5805;SDS011;2929;50.810;8.342;2024-02-26T12:11:38;4.73;;;3.70;;
5805;SDS011;2929;50.810;8.342;2024-02-26T12:14:07;11.33;;;5.10;;
5805;SDS011;2929;50.810;8.342;2024-02-26T12:16:35;8.07;;;4.77;;
5805;SDS011;2929;50.810;8.342;2024-02-26T12:19:03;6.90;;;3.80;;
5805;SDS011;2929;50.810;8.342;2024-02-26T12:21:31;5.10;;;3.60;;
5805;SDS011;2929;50.810;8.342;2024-02-26T12:24:06;7.10;;;3.73;;
5805;SDS011;2929;50.810;8.342;2024-02-26T12:26:37;7.23;;;3.77;;
5805;SDS011;2929;50.810;8.342;2024-02-26T12:29:04;7.70;;;4.27;;
5805;SDS011;2929;50.810;8.342;2024-02-26T12:31:33;6.43;;;3.70;;
5805;SDS011;2929;50.810;8.342;2024-02-26T12:34:02;5.33;;;3.60;;
5805;SDS011;2929;50.810;8.342;2024-02-26T12:36:29;6.73;;;4.03;;
5805;SDS011;2929;50.810;8.342;2024-02-26T12:38:56;5.53;;;3.80;;
5805;SDS011;2929;50.810;8.342;2024-02-26T12:41:23;6.07;;;4.23;;
5805;SDS011;2929;50.810;8.342;2024-02-26T12:43:51;8.03;;;4.40;;
5805;SDS011;2929;50.810;8.342;2024-02-26T12:46:21;5.77;;;3.97;;
5805;SDS011;2929;50.810;8.342;2024-02-26T12:48:50;5.53;;;4.00;;
5805;SDS011;2929;50.810;8.342;2024-02-26T12:51:17;6.63;;;4.23;;
5805;SDS011;2929;50.810;8.342;2024-02-26T12:53:44;7.63;;;4.23;;
5805;SDS011;2929;50.810;8.342;2024-02-26T12:56:15;6.70;;;3.57;;
5805;SDS011;2929;50.810;8.342;2024-02-26T12:58:43;6.33;;;4.17;;
5805;SDS011;2929;50.810;8.342;2024-02-26T13:01:13;9.83;;;4.13;;
5805;SDS011;2929;50.810;8.342;2024-02-26T13:03:43;6.60;;;4.23;;
5805;SDS011;2929;50.810;8.342;2024-02-26T13:06:10;7.27;;;3.63;;
5805;SDS011;2929;50.810;8.342;2024-02-26T13:08:38;8.83;;;4.53;;
5805;SDS011;2929;50.810;8.342;2024-02-26T13:11:05;7.47;;;4.30;;
5805;SDS011;2929;50.810;8.342;2024-02-26T13:13:33;6.80;;;4.07;;
5805;SDS011;2929;50.810;8.342;2024-02-26T13:16:03;6.80;;;4.07;;
5805;SDS011;2929;50.810;8.342;2024-02-26T13:18:34;9.07;;;4.40;;
5805;SDS011;2929;50.810;8.342;2024-02-26T13:21:08;5.30;;;3.80;;
5805;SDS011;2929;50.810;8.342;2024-02-26T13:23:37;12.27;;;6.30;;
5805;SDS011;2929;50.810;8.342;2024-02-26T13:26:05;23.80;;;9.27;;
5805;SDS011;2929;50.810;8.342;2024-02-26T13:28:33;27.20;;;9.90;;
5805;SDS011;2929;50.810;8.342;2024-02-26T13:31:00;43.17;;;14.17;;
5805;SDS011;2929;50.810;8.342;2024-02-26T13:33:30;10.33;;;5.37;;
5805;SDS011;2929;50.810;8.342;2024-02-26T13:35:57;16.73;;;7.20;;
5805;SDS011;2929;50.810;8.342;2024-02-26T13:38:26;11.70;;;5.20;;
5805;SDS011;2929;50.810;8.342;2024-02-26T13:40:54;16.90;;;8.00;;
5805;SDS011;2929;50.810;8.342;2024-02-26T13:43:22;16.20;;;6.93;;
5805;SDS011;2929;50.810;8.342;2024-02-26T13:45:49;46.50;;;17.17;;
5805;SDS011;2929;50.810;8.342;2024-02-26T13:48:16;8.73;;;4.80;;
5805;SDS011;2929;50.810;8.342;2024-02-26T13:50:43;14.20;;;6.60;;
5805;SDS011;2929;50.810;8.342;2024-02-26T13:53:11;6.67;;;4.33;;
5805;SDS011;2929;50.810;8.342;2024-02-26T13:55:40;7.80;;;4.60;;
5805;SDS011;2929;50.810;8.342;2024-02-26T13:58:08;7.00;;;4.20;;
5805;SDS011;2929;50.810;8.342;2024-02-26T14:00:39;5.93;;;3.67;;
5805;SDS011;2929;50.810;8.342;2024-02-26T14:03:06;9.20;;;3.90;;
5805;SDS011;2929;50.810;8.342;2024-02-26T14:05:33;7.43;;;4.50;;
5805;SDS011;2929;50.810;8.342;2024-02-26T14:08:00;9.90;;;5.40;;
5805;SDS011;2929;50.810;8.342;2024-02-26T14:10:28;6.20;;;4.03;;
5805;SDS011;2929;50.810;8.342;2024-02-26T14:12:56;9.73;;;5.17;;
5805;SDS011;2929;50.810;8.342;2024-02-26T14:15:23;4.73;;;3.73;;
5805;SDS011;2929;50.810;8.342;2024-02-26T14:17:51;7.20;;;4.30;;
5805;SDS011;2929;50.810;8.342;2024-02-26T14:20:21;7.30;;;3.80;;
5805;SDS011;2929;50.810;8.342;2024-02-26T14:22:48;6.27;;;4.27;;
5805;SDS011;2929;50.810;8.342;2024-02-26T14:25:16;7.33;;;3.80;;
5805;SDS011;2929;50.810;8.342;2024-02-26T14:27:44;6.17;;;4.07;;
5805;SDS011;2929;50.810;8.342;2024-02-26T14:30:13;8.10;;;3.70;;
5805;SDS011;2929;50.810;8.342;2024-02-26T14:32:41;5.50;;;3.80;;
5805;SDS011;2929;50.810;8.342;2024-02-26T14:35:08;7.53;;;4.17;;
5805;SDS011;2929;50.810;8.342;2024-02-26T14:37:36;18.77;;;5.47;;
5805;SDS011;2929;50.810;8.342;2024-02-26T14:40:04;5.63;;;3.83;;
5805;SDS011;2929;50.810;8.342;2024-02-26T14:42:33;7.70;;;4.37;;
5805;SDS011;2929;50.810;8.342;2024-02-26T14:45:00;7.20;;;4.53;;
5805;SDS011;2929;50.810;8.342;2024-02-26T14:47:28;5.90;;;4.10;;
5805;SDS011;2929;50.810;8.342;2024-02-26T14:49:55;6.67;;;4.50;;
5805;SDS011;2929;50.810;8.342;2024-02-26T14:52:22;5.77;;;3.90;;
5805;SDS011;2929;50.810;8.342;2024-02-26T14:54:50;5.83;;;4.23;;
5805;SDS011;2929;50.810;8.342;2024-02-26T14:57:17;6.53;;;4.20;;
5805;SDS011;2929;50.810;8.342;2024-02-26T14:59:45;4.60;;;3.40;;
5805;SDS011;2929;50.810;8.342;2024-02-26T15:02:12;5.67;;;3.77;;
5805;SDS011;2929;50.810;8.342;2024-02-26T15:04:45;5.03;;;4.03;;
5805;SDS011;2929;50.810;8.342;2024-02-26T15:07:12;5.17;;;3.30;;
5805;SDS011;2929;50.810;8.342;2024-02-26T15:09:39;9.70;;;4.10;;
5805;SDS011;2929;50.810;8.342;2024-02-26T15:12:06;4.90;;;3.50;;
5805;SDS011;2929;50.810;8.342;2024-02-26T15:14:34;4.97;;;3.90;;
5805;SDS011;2929;50.810;8.342;2024-02-26T15:17:01;6.10;;;4.40;;
5805;SDS011;2929;50.810;8.342;2024-02-26T15:19:29;7.03;;;3.70;;